Time;durP1;ratioP1;P1;durP2;ratioP2;P2;SDS_P1;SDS_P2;PMS_P1;PMS_P2;Temp;Humidity;BMP_temperature;BMP_pressure;BME280_temperature;BME280_humidity;BME280_pressure;Samples;Min_cycle;Max_cycle;Signal;HPM_P1;HPM_P2
2022/12/27 00:02:03;;;;;;;0.60;0.60;;;1.10;99.90;;;;;;5112216;28;20199;-70
2022/12/27 00:04:29;;;;;;;0.60;0.60;;;1.10;99.90;;;;;;5106654;28;20230;-70
2022/12/27 00:06:55;;;;;;;0.73;0.73;;;1.00;99.90;;;;;;5112094;28;20248;-70
2022/12/27 00:09:21;;;;;;;0.60;0.60;;;1.00;99.90;;;;;;5094045;28;20199;-70
2022/12/27 00:11:47;;;;;;;0.60;0.60;;;0.90;99.90;;;;;;5112080;28;20202;-70
2022/12/27 00:14:12;;;;;;;0.57;0.57;;;0.80;99.90;;;;;;5093733;28;20298;-69
2022/12/27 00:16:38;;;;;;;0.60;0.60;;;0.70;99.90;;;;;;5111702;28;20203;-70
2022/12/27 00:19:04;;;;;;;0.50;0.50;;;0.70;99.90;;;;;;5093388;28;20203;-69
2022/12/27 00:21:30;;;;;;;0.60;0.60;;;0.60;99.90;;;;;;5111327;28;20274;-72
2022/12/27 00:23:56;;;;;;;0.60;0.60;;;0.60;99.90;;;;;;5105734;28;20282;-71
2022/12/27 00:26:26;;;;;;;0.60;0.60;;;0.50;99.90;;;;;;5111653;28;20662;-71
2022/12/27 00:28:53;;;;;;;0.70;0.70;;;0.40;99.90;;;;;;5111744;28;20658;-71
2022/12/27 00:31:20;;;;;;;0.50;0.50;;;0.30;99.90;;;;;;5093550;28;20545;-70
2022/12/27 00:33:47;;;;;;;0.50;0.50;;;0.30;99.90;;;;;;5094215;28;20205;-71
2022/12/27 00:36:23;;;;;;;0.70;0.70;;;0.20;99.90;;;;;;5112393;28;20180;-71
2022/12/27 00:38:49;;;;;;;0.60;0.60;;;0.10;99.90;;;;;;5089931;28;20277;-71
2022/12/27 00:41:16;;;;;;;0.52;0.52;;;0.00;99.90;;;;;;5090801;28;20571;-71
2022/12/27 00:43:42;;;;;;;0.50;0.50;;;0.00;99.90;;;;;;5083414;28;20200;-70
2022/12/27 00:46:08;;;;;;;0.70;0.70;;;0.00;99.90;;;;;;5101456;28;20196;-70
2022/12/27 00:48:34;;;;;;;0.63;0.63;;;0.00;99.90;;;;;;5111543;28;20184;-71
2022/12/27 00:51:02;;;;;;;0.82;0.82;;;-0.10;99.90;;;;;;5110953;28;20632;-71
2022/12/27 00:53:30;;;;;;;0.60;0.60;;;-0.10;99.90;;;;;;5093331;28;20693;-71
2022/12/27 00:55:55;;;;;;;0.60;0.60;;;-0.10;99.90;;;;;;5111564;28;20188;-71
2022/12/27 00:58:21;;;;;;;0.70;0.70;;;-0.10;99.90;;;;;;5111564;28;20194;-70
2022/12/27 01:00:48;;;;;;;0.50;0.50;;;0.00;99.90;;;;;;5087139;28;20192;-71
2022/12/27 01:03:15;;;;;;;2.15;2.05;;;0.00;99.90;;;;;;5110738;28;20645;-71
2022/12/27 01:05:40;;;;;;;0.50;0.50;;;0.10;99.90;;;;;;5114823;28;20272;-72
2022/12/27 01:08:06;;;;;;;0.50;0.50;;;0.00;99.90;;;;;;5115005;28;20657;-72
2022/12/27 01:10:32;;;;;;;0.60;0.60;;;0.00;99.90;;;;;;5114531;28;20195;-71
2022/12/27 01:13:00;;;;;;;0.60;0.60;;;-0.10;99.90;;;;;;5115094;28;20188;-72
2022/12/27 01:15:26;;;;;;;0.60;0.60;;;-0.20;99.90;;;;;;5115120;28;20214;-71
2022/12/27 01:17:52;;;;;;;0.40;0.40;;;-0.20;99.90;;;;;;5115198;28;20660;-71
2022/12/27 01:20:18;;;;;;;0.60;0.60;;;-0.30;99.90;;;;;;5114599;28;20227;-72
2022/12/27 01:22:44;;;;;;;0.60;0.60;;;-0.30;99.90;;;;;;5095931;28;20198;-72
2022/12/27 01:25:09;;;;;;;0.60;0.60;;;-0.30;99.90;;;;;;5114600;28;20197;-71
2022/12/27 01:27:35;;;;;;;0.60;0.60;;;-0.30;99.90;;;;;;5114506;28;20195;-71
2022/12/27 01:30:03;;;;;;;0.57;0.57;;;-0.30;99.90;;;;;;5114715;28;20187;-72
2022/12/27 01:32:32;;;;;;;0.70;0.70;;;-0.30;99.90;;;;;;5114364;28;20200;-72
2022/12/27 01:34:57;;;;;;;0.73;0.73;;;-0.30;99.90;;;;;;5114553;28;20207;-71
2022/12/27 01:37:23;;;;;;;0.60;0.60;;;-0.40;99.90;;;;;;5095834;28;20191;-71
2022/12/27 01:39:49;;;;;;;0.70;0.70;;;-0.50;99.90;;;;;;5096135;28;20195;-72
2022/12/27 01:45:13;;;;;;;0.63;0.63;;;-0.50;99.90;;;;;;5114997;28;20693;-71
2022/12/27 01:47:59;;;;;;;0.60;0.60;;;-0.60;99.90;;;;;;5114412;28;20576;-71
2022/12/27 01:50:31;;;;;;;0.75;0.75;;;-0.50;99.90;;;;;;5113942;28;20685;-71
2022/12/27 01:53:14;;;;;;;0.80;0.80;;;-0.50;99.90;;;;;;5114274;28;20195;-71
2022/12/27 01:56:02;;;;;;;0.70;0.70;;;-0.50;99.90;;;;;;5095163;28;20207;-72
2022/12/27 01:58:35;;;;;;;0.60;0.60;;;-0.60;99.90;;;;;;5114246;28;20214;-71
2022/12/27 02:01:03;;;;;;;0.55;0.55;;;-0.60;99.90;;;;;;5114774;28;20274;-71
2022/12/27 02:03:39;;;;;;;0.60;0.60;;;-0.70;99.90;;;;;;5085377;22;20311;-76
2022/12/27 02:06:07;;;;;;;0.50;0.50;;;-0.80;99.90;;;;;;5073084;28;20198;-76
2022/12/27 02:08:52;;;;;;;0.50;0.50;;;-0.90;99.90;;;;;;5072599;28;20189;-76
2022/12/27 02:11:49;;;;;;;5.45;3.42;;;-0.90;99.90;;;;;;5072663;28;20275;-76
2022/12/27 02:14:14;;;;;;;0.70;0.70;;;-1.10;99.90;;;;;;5072202;28;20224;-76
2022/12/27 02:16:46;;;;;;;0.52;0.52;;;-1.10;99.90;;;;;;5072387;28;20247;-76
2022/12/27 02:19:43;;;;;;;1.05;1.05;;;-1.20;99.90;;;;;;5072611;28;20185;-75
2022/12/27 02:22:17;;;;;;;0.60;0.60;;;-1.30;99.90;;;;;;5072635;28;20188;-75
2022/12/27 02:25:11;;;;;;;2.65;1.52;;;-1.30;99.90;;;;;;5072187;28;20207;-76
2022/12/27 02:27:37;;;;;;;0.85;0.85;;;-1.40;99.90;;;;;;5072170;28;20232;-75
2022/12/27 02:30:08;;;;;;;0.60;0.60;;;-1.50;99.90;;;;;;5054387;28;20208;-76
2022/12/27 02:33:11;;;;;;;0.70;0.70;;;-1.50;99.90;;;;;;5072300;28;20680;-75
2022/12/27 02:35:42;;;;;;;0.65;0.65;;;-1.60;99.90;;;;;;5053973;28;20346;-75
2022/12/27 02:38:21;;;;;;;0.80;0.80;;;-1.60;99.90;;;;;;5053871;28;20279;-75
2022/12/27 02:53:05;;;;;;;0.70;0.70;;;-1.50;99.90;;;;;;5071607;28;20584;-75
2022/12/27 02:55:36;;;;;;;0.70;0.70;;;-1.50;99.90;;;;;;5053639;28;20655;-75
2022/12/27 02:58:20;;;;;;;0.70;0.70;;;-1.60;99.90;;;;;;5071880;28;20189;-74
2022/12/27 03:04:11;;;;;;;0.70;0.70;;;-1.50;99.90;;;;;;5084789;28;20281;-76
2022/12/27 03:06:48;;;;;;;0.80;0.80;;;-1.30;99.90;;;;;;5092005;28;20192;-75
2022/12/27 03:15:54;;;;;;;0.80;0.80;;;-1.50;99.90;;;;;;5086312;28;20223;-75
2022/12/27 03:18:50;;;;;;;0.60;0.60;;;-1.50;99.90;;;;;;5052278;28;20611;-75
2022/12/27 03:27:04;;;;;;;0.70;0.70;;;-1.60;99.90;;;;;;5071424;28;20272;-74
2022/12/27 03:35:21;;;;;;;0.70;0.70;;;-1.40;99.90;;;;;;4989129;28;20245;-75
2022/12/27 03:38:02;;;;;;;0.60;0.60;;;-1.40;99.90;;;;;;5000872;28;20205;-75
2022/12/27 03:43:34;;;;;;;0.68;0.68;;;-1.40;99.90;;;;;;5009935;28;20856;-75
2022/12/27 03:46:35;;;;;;;0.70;0.70;;;-1.40;99.90;;;;;;5033312;28;20197;-75
2022/12/27 03:49:36;;;;;;;0.63;0.63;;;-1.50;99.90;;;;;;5043719;28;20199;-75
2022/12/27 03:52:21;;;;;;;0.77;0.77;;;-1.50;99.90;;;;;;5071107;28;20638;-76
2022/12/27 03:54:50;;;;;;;0.70;0.70;;;-1.50;99.90;;;;;;5053103;28;20209;-76
2022/12/27 03:57:22;;;;;;;0.70;0.70;;;-1.60;99.90;;;;;;5071470;28;20581;-75
2022/12/27 03:59:48;;;;;;;0.70;0.70;;;-1.60;99.90;;;;;;5071030;28;20678;-75
2022/12/27 04:02:14;;;;;;;0.70;0.70;;;-1.70;99.90;;;;;;5042737;28;20254;-75
2022/12/27 04:04:39;;;;;;;0.63;0.63;;;-1.60;99.90;;;;;;5064679;28;20204;-76
2022/12/27 04:07:06;;;;;;;0.77;0.77;;;-1.60;99.90;;;;;;5091057;28;20279;-75
2022/12/27 04:36:57;;;;;;;0.60;0.60;;;-1.40;99.90;;;;;;5093718;28;20199;-75
2022/12/27 04:39:23;;;;;;;0.70;0.70;;;-1.50;99.90;;;;;;5072644;28;20573;-75
2022/12/27 04:55:55;;;;;;;0.70;0.70;;;-1.60;99.90;;;;;;5094329;28;20215;-75
2022/12/27 04:58:21;;;;;;;0.65;0.65;;;-1.60;99.90;;;;;;5094076;28;20193;-75
2022/12/27 05:03:32;;;;;;;0.70;0.70;;;-1.50;99.90;;;;;;5095621;28;20285;-76
2022/12/27 05:06:00;;;;;;;0.70;0.70;;;-1.40;99.90;;;;;;5095679;28;20276;-76
2022/12/27 05:14:00;;;;;;;0.70;0.70;;;-1.50;99.90;;;;;;5094035;28;20266;-76
2022/12/27 05:16:43;;;;;;;0.63;0.63;;;-1.50;99.90;;;;;;5075743;28;20651;-77
2022/12/27 05:19:12;;;;;;;0.70;0.70;;;-1.50;99.90;;;;;;5094013;28;20568;-75
2022/12/27 05:25:33;;;;;;;0.55;0.55;;;-1.60;99.90;;;;;;5075411;28;20658;-75
2022/12/27 05:27:17;;;;;;;8.55;2.88;;;-1.40;99.90;;;;;;5093148;28;20701;-76
2022/12/27 05:29:42;;;;;;;0.70;0.70;;;-1.40;99.90;;;;;;5093720;28;20203;-75
2022/12/27 05:32:08;;;;;;;0.60;0.60;;;-1.20;99.90;;;;;;5093753;28;20192;-75
2022/12/27 05:34:34;;;;;;;0.60;0.60;;;-1.10;99.90;;;;;;5094064;28;20234;-75
2022/12/27 05:37:01;;;;;;;0.68;0.68;;;-0.90;99.90;;;;;;5093510;28;20193;-75
2022/12/27 05:39:27;;;;;;;0.60;0.60;;;-0.80;99.90;;;;;;5099640;28;20203;-75
2022/12/27 05:41:52;;;;;;;0.65;0.65;;;-0.70;99.90;;;;;;5099689;28;20199;-75
2022/12/27 05:44:18;;;;;;;0.60;0.60;;;-0.70;99.90;;;;;;5075309;28;20192;-76
2022/12/27 05:46:44;;;;;;;0.63;0.63;;;-0.60;99.90;;;;;;5075058;28;20673;-75
2022/12/27 05:49:09;;;;;;;1.55;1.45;;;-0.60;99.90;;;;;;5074435;28;20290;-75
2022/12/27 05:51:35;;;;;;;0.60;0.60;;;-0.50;99.90;;;;;;5075202;28;20673;-75
2022/12/27 05:54:07;;;;;;;0.60;0.60;;;-0.40;99.90;;;;;;5093289;28;20196;-76
2022/12/27 05:56:36;;;;;;;0.70;0.70;;;-0.30;99.90;;;;;;5074755;28;20196;-75
2022/12/27 05:59:02;;;;;;;0.70;0.70;;;-0.10;99.90;;;;;;5092973;28;20181;-74
2022/12/27 06:01:28;;;;;;;0.70;0.70;;;0.00;99.90;;;;;;5092673;28;20192;-77
2022/12/27 06:03:57;;;;;;;0.50;0.50;;;0.10;99.90;;;;;;5074054;28;20695;-73
2022/12/27 06:06:26;;;;;;;0.60;0.60;;;0.20;99.90;;;;;;5070882;28;20350;-75
2022/12/27 06:08:52;;;;;;;0.70;0.70;;;0.40;99.90;;;;;;5074030;28;20230;-75
2022/12/27 06:11:18;;;;;;;0.70;0.70;;;0.40;99.90;;;;;;5072838;28;20732;-76
2022/12/27 06:13:52;;;;;;;0.60;0.60;;;0.50;99.90;;;;;;5072910;28;20219;-76
2022/12/27 06:16:19;;;;;;;0.65;0.65;;;0.50;99.90;;;;;;5054559;28;20197;-75
2022/12/27 06:18:45;;;;;;;0.70;0.70;;;0.60;99.90;;;;;;5054836;28;20199;-75
2022/12/27 06:21:16;;;;;;;0.60;0.60;;;0.60;99.90;;;;;;5072454;28;20264;-76
2022/12/27 06:23:43;;;;;;;0.60;0.60;;;0.70;99.90;;;;;;5072438;28;20203;-75
2022/12/27 06:26:25;;;;;;;0.60;0.60;;;0.70;99.90;;;;;;5072861;28;20284;-76
2022/12/27 06:28:51;;;;;;;0.50;0.50;;;0.60;99.90;;;;;;5072557;28;20555;-76
2022/12/27 06:31:18;;;;;;;0.60;0.60;;;0.50;99.90;;;;;;5054823;28;20204;-75
2022/12/27 06:33:45;;;;;;;0.57;0.57;;;0.60;99.90;;;;;;5054370;28;20721;-76
2022/12/27 06:36:16;;;;;;;4.85;2.47;;;0.70;99.90;;;;;;5054373;28;20194;-75
2022/12/27 06:38:43;;;;;;;0.70;0.70;;;0.80;99.90;;;;;;5059918;28;20747;-76
2022/12/27 06:41:16;;;;;;;0.60;0.60;;;0.80;99.90;;;;;;5051050;28;20283;-76
2022/12/27 06:43:42;;;;;;;0.60;0.60;;;0.70;99.90;;;;;;5052190;28;20186;-76
2022/12/27 06:46:13;;;;;;;0.60;0.60;;;0.80;99.90;;;;;;5052262;28;20296;-76
2022/12/27 06:48:39;;;;;;;0.65;0.65;;;0.80;99.90;;;;;;5050777;28;20206;-76
2022/12/27 06:51:07;;;;;;;1.58;1.48;;;0.90;99.90;;;;;;5052449;28;20675;-76
2022/12/27 06:53:35;;;;;;;0.40;0.40;;;0.90;99.90;;;;;;5051919;28;20192;-76
2022/12/27 06:56:09;;;;;;;0.60;0.60;;;1.00;99.90;;;;;;5050786;28;20689;-76
2022/12/27 06:58:35;;;;;;;0.60;0.60;;;1.10;99.90;;;;;;5051987;28;20185;-75
2022/12/27 07:01:11;;;;;;;0.57;0.57;;;1.10;99.90;;;;;;5044455;28;20212;-76
2022/12/27 07:03:37;;;;;;;0.70;0.70;;;1.10;99.90;;;;;;5083005;28;20710;-76
2022/12/27 07:06:05;;;;;;;0.50;0.50;;;1.00;99.90;;;;;;5073867;28;20283;-76
2022/12/27 07:08:31;;;;;;;0.60;0.60;;;1.00;99.90;;;;;;5092039;28;20658;-76
2022/12/27 07:11:06;;;;;;;0.50;0.50;;;0.90;99.90;;;;;;5092108;28;20189;-76
2022/12/27 07:13:37;;;;;;;0.60;0.60;;;0.90;99.90;;;;;;5091681;28;20235;-74
2022/12/27 07:16:07;;;;;;;0.60;0.60;;;1.00;99.90;;;;;;5091606;28;20207;-76
2022/12/27 07:18:34;;;;;;;0.50;0.50;;;1.10;99.90;;;;;;5091665;28;20655;-76
2022/12/27 07:21:08;;;;;;;0.50;0.50;;;1.10;99.90;;;;;;5073480;28;20200;-74
2022/12/27 07:23:34;;;;;;;0.93;0.93;;;1.10;99.90;;;;;;5091602;28;20192;-75
2022/12/27 07:26:09;;;;;;;0.60;0.60;;;1.10;99.90;;;;;;5073625;28;20670;-76
2022/12/27 07:28:36;;;;;;;0.85;0.85;;;1.00;99.90;;;;;;5091501;28;20198;-76
2022/12/27 07:31:07;;;;;;;0.60;0.60;;;1.10;99.90;;;;;;5091693;28;20769;-76
2022/12/27 07:33:33;;;;;;;0.80;0.80;;;1.20;99.90;;;;;;5073559;28;20196;-76
2022/12/27 07:36:00;;;;;;;0.65;0.65;;;1.20;99.90;;;;;;5073368;28;20735;-76
2022/12/27 07:38:26;;;;;;;0.60;0.60;;;1.20;99.90;;;;;;5069646;28;20188;-75
2022/12/27 07:40:52;;;;;;;0.60;0.60;;;1.10;99.90;;;;;;5073364;28;20211;-76
2022/12/27 07:43:18;;;;;;;1.30;1.20;;;0.90;99.90;;;;;;5073357;28;20249;-75
2022/12/27 07:46:41;;;;;;;0.70;0.70;;;0.80;99.90;;;;;;5093902;28;20196;-76
2022/12/27 07:49:09;;;;;;;0.60;0.60;;;0.80;99.90;;;;;;5085417;28;20204;-76
2022/12/27 07:52:01;;;;;;;0.60;0.60;;;0.80;99.90;;;;;;5094339;28;20206;-77
2022/12/27 07:54:44;;;;;;;0.63;0.63;;;0.90;99.90;;;;;;5094161;28;20196;-76
2022/12/27 07:58:06;;;;;;;0.70;0.70;;;1.10;99.90;;;;;;5093659;28;20591;-76
2022/12/27 08:00:50;;;;;;;0.60;0.60;;;1.10;99.90;;;;;;5074468;28;20291;-76
2022/12/27 08:03:16;;;;;;;0.60;0.60;;;1.30;99.90;;;;;;5090070;28;20224;-76
2022/12/27 08:06:20;;;;;;;0.60;0.60;;;1.30;99.90;;;;;;5074541;28;20622;-76
2022/12/27 08:09:19;;;;;;;0.60;0.60;;;1.40;99.90;;;;;;5074726;28;20653;-76
2022/12/27 08:11:45;;;;;;;0.60;0.60;;;1.60;99.90;;;;;;5094905;28;20223;-75
2022/12/27 08:14:16;;;;;;;0.50;0.50;;;1.50;99.90;;;;;;5078380;28;20207;-77
2022/12/27 08:16:42;;;;;;;0.70;0.70;;;1.40;99.90;;;;;;5097645;28;20188;-74
2022/12/27 08:26:03;;;;;;;0.60;0.60;;;1.40;99.90;;;;;;5008427;28;20677;-76
2022/12/27 08:28:30;;;;;;;0.70;0.70;;;1.40;99.90;;;;;;5013438;28;20226;-76
2022/12/27 08:30:57;;;;;;;0.60;0.60;;;1.30;99.90;;;;;;5006794;28;20217;-75
2022/12/27 08:33:26;;;;;;;0.50;0.50;;;1.40;99.90;;;;;;5036720;28;20213;-76
2022/12/27 08:36:11;;;;;;;0.60;0.60;;;1.40;99.90;;;;;;5054219;28;20248;-76
2022/12/27 08:41:56;;;;;;;0.57;0.57;;;1.30;99.90;;;;;;4985618;28;20301;-77
2022/12/27 08:48:21;;;;;;;0.50;0.50;;;1.40;99.90;;;;;;4975453;28;20203;-76
2022/12/27 08:51:07;;;;;;;0.70;0.70;;;1.40;99.90;;;;;;5009952;28;20619;-76
2022/12/27 08:53:38;;;;;;;0.55;0.55;;;1.40;99.90;;;;;;5032351;28;20560;-76
2022/12/27 08:56:37;;;;;;;0.60;0.60;;;1.50;99.90;;;;;;5016963;28;20257;-76
2022/12/27 08:59:06;;;;;;;0.65;0.65;;;1.50;99.90;;;;;;5032635;28;20194;-76
2022/12/27 09:01:51;;;;;;;2.35;2.08;;;1.50;99.90;;;;;;5038511;28;20333;-76
2022/12/27 09:04:42;;;;;;;0.50;0.50;;;1.50;99.90;;;;;;5077016;28;20773;-75
2022/12/27 09:07:08;;;;;;;0.60;0.60;;;1.50;99.90;;;;;;5095081;28;20196;-76
2022/12/27 09:10:05;;;;;;;0.60;0.60;;;1.60;99.90;;;;;;5062792;28;20670;-76
2022/12/27 09:12:37;;;;;;;0.60;0.60;;;1.70;99.90;;;;;;5076116;28;20647;-77
2022/12/27 09:15:18;;;;;;;0.60;0.60;;;1.70;99.90;;;;;;5094750;28;20208;-78
2022/12/27 09:18:28;;;;;;;0.60;0.60;;;1.70;99.90;;;;;;5076474;28;20198;-76
2022/12/27 09:21:24;;;;;;;0.68;0.68;;;1.70;99.90;;;;;;5066569;28;20211;-77
2022/12/27 09:23:59;;;;;;;0.60;0.60;;;1.70;99.90;;;;;;5094450;28;20216;-77
2022/12/27 09:27:11;;;;;;;0.50;0.50;;;1.70;99.90;;;;;;5078460;28;20192;-76
2022/12/27 09:29:37;;;;;;;0.60;0.60;;;1.70;99.90;;;;;;5078321;28;20200;-77
2022/12/27 09:35:34;;;;;;;0.70;0.70;;;1.70;99.90;;;;;;5014195;28;20218;-77
2022/12/27 09:39:00;;;;;;;0.65;0.65;;;1.80;99.90;;;;;;5010647;28;20639;-75
2022/12/27 09:41:49;;;;;;;0.70;0.70;;;1.90;99.90;;;;;;4993235;28;20283;-75
2022/12/27 09:44:34;;;;;;;0.50;0.50;;;1.90;99.90;;;;;;4977192;28;20207;-76
2022/12/27 09:57:58;;;;;;;0.65;0.65;;;1.80;99.90;;;;;;4992833;28;20211;-75
2022/12/27 10:00:27;;;;;;;0.60;0.60;;;1.80;99.90;;;;;;4953069;29;20244;-77
2022/12/27 10:03:23;;;;;;;0.50;0.50;;;1.90;99.90;;;;;;4988219;28;20464;-75
2022/12/27 10:06:26;;;;;;;0.60;0.60;;;1.80;99.90;;;;;;5064153;28;20734;-76
2022/12/27 10:09:24;;;;;;;0.50;0.50;;;1.90;99.90;;;;;;5088447;28;20547;-76
2022/12/27 10:12:27;;;;;;;0.40;0.40;;;1.90;99.90;;;;;;5096633;28;20191;-76
2022/12/27 10:15:24;;;;;;;0.50;0.50;;;1.90;99.90;;;;;;5114763;28;20199;-76
2022/12/27 10:18:09;;;;;;;0.60;0.60;;;1.80;99.90;;;;;;5097833;28;20434;-74
2022/12/27 10:21:09;;;;;;;0.57;0.57;;;1.80;99.90;;;;;;5096308;28;20197;-76
2022/12/27 10:23:39;;;;;;;0.60;0.60;;;1.80;99.90;;;;;;5095940;28;20191;-74
2022/12/27 10:26:56;;;;;;;0.60;0.60;;;1.70;99.90;;;;;;5095529;28;20201;-75
2022/12/27 10:29:58;;;;;;;0.60;0.60;;;1.70;99.90;;;;;;5014187;28;20684;-77
2022/12/27 10:32:27;;;;;;;0.60;0.60;;;1.60;99.90;;;;;;5050170;28;20289;-75
2022/12/27 10:35:36;;;;;;;0.60;0.60;;;1.70;99.90;;;;;;5032252;28;20809;-76
2022/12/27 10:38:09;;;;;;;0.60;0.60;;;1.70;99.90;;;;;;5046842;28;20639;-75
2022/12/27 10:41:14;;;;;;;0.70;0.70;;;1.60;99.90;;;;;;5032078;28;20194;-77
2022/12/27 10:43:59;;;;;;;0.70;0.70;;;1.70;99.90;;;;;;5030960;28;20229;-75
2022/12/27 10:46:27;;;;;;;0.70;0.70;;;1.70;99.90;;;;;;5030841;28;20202;-75
2022/12/27 10:49:25;;;;;;;0.60;0.60;;;1.70;99.90;;;;;;5031749;28;20221;-75
2022/12/27 10:52:25;;;;;;;0.45;0.45;;;1.70;99.90;;;;;;5030528;28;20237;-76
2022/12/27 10:55:31;;;;;;;0.50;0.50;;;1.60;99.90;;;;;;5011805;28;20223;-77
2022/12/27 10:58:53;;;;;;;;;;;;;;;;;;;;;
2022/12/27 11:05:28;;;;;;;0.70;0.70;;;1.60;99.90;;;;;;4994498;28;20234;-76
2022/12/27 11:08:22;;;;;;;0.63;0.63;;;1.50;99.90;;;;;;5007817;28;20686;-76
2022/12/27 11:11:38;;;;;;;;;;;;;;;;;;;;;
2022/12/27 11:14:56;;;;;;;0.70;0.70;;;1.50;99.90;;;;;;4914076;29;20601;-75
2022/12/27 11:17:29;;;;;;;0.50;0.50;;;1.60;99.90;;;;;;4938711;28;20203;-77
2022/12/27 11:20:42;;;;;;;0.60;0.60;;;1.60;99.90;;;;;;5002534;28;20217;-74
2022/12/27 11:23:08;;;;;;;0.50;0.50;;;1.70;99.90;;;;;;4971567;28;20266;-75
2022/12/27 11:29:35;;;;;;;0.65;0.65;;;1.80;99.90;;;;;;4933775;29;20770;-74
2022/12/27 11:32:22;;;;;;;0.70;0.70;;;1.80;99.90;;;;;;4895086;29;20214;-76
2022/12/27 11:39:09;;;;;;;0.80;0.80;;;1.80;99.90;;;;;;4928102;29;20235;-75
2022/12/27 11:42:37;;;;;;;;;;;;;;;;;;;;;
2022/12/27 11:45:47;;;;;;;0.70;0.70;;;1.80;99.90;;;;;;4944183;28;20204;-73
2022/12/27 11:48:34;;;;;;;0.52;0.52;;;1.90;99.90;;;;;;4927392;29;20698;-75
2022/12/27 11:51:37;;;;;;;0.60;0.60;;;1.90;99.90;;;;;;4930940;29;20217;-74
2022/12/27 11:55:05;;;;;;;0.70;0.70;;;1.90;99.90;;;;;;4967000;28;20211;-75
2022/12/27 12:04:33;;;;;;;0.52;0.52;;;2.00;99.90;;;;;;4933501;29;20305;-74
2022/12/27 12:07:18;;;;;;;0.60;0.60;;;2.00;99.90;;;;;;4933928;29;20281;-75
2022/12/27 12:13:12;;;;;;;0.40;0.40;;;2.00;99.90;;;;;;4910617;29;20206;-73
2022/12/27 12:19:53;;;;;;;0.70;0.70;;;1.90;99.90;;;;;;4952991;29;20320;-76
2022/12/27 12:23:17;;;;;;;0.60;0.60;;;1.90;99.90;;;;;;4895789;29;20211;-76
2022/12/27 12:26:25;;;;;;;0.68;0.68;;;1.90;99.90;;;;;;4916575;29;20210;-76
2022/12/27 12:36:35;;;;;;;0.75;0.75;;;1.80;99.90;;;;;;4952069;29;20231;-75
2022/12/27 12:43:22;;;;;;;0.50;0.50;;;1.90;99.90;;;;;;4952491;29;20365;-75
2022/12/27 12:46:19;;;;;;;0.70;0.70;;;1.80;99.90;;;;;;4933784;29;20236;-76
2022/12/27 12:49:03;;;;;;;0.60;0.60;;;1.70;99.90;;;;;;4932135;29;20206;-75
2022/12/27 12:52:06;;;;;;;0.50;0.50;;;1.70;99.90;;;;;;4932507;29;20222;-75
2022/12/27 12:55:04;;;;;;;0.50;0.50;;;1.70;99.90;;;;;;4932552;29;20254;-75
2022/12/27 12:57:39;;;;;;;0.60;0.60;;;1.60;99.90;;;;;;4933532;29;20364;-73
2022/12/27 13:00:42;;;;;;;0.65;0.65;;;1.50;99.90;;;;;;4921682;29;20194;-74
2022/12/27 13:04:12;;;;;;;0.60;0.60;;;1.50;99.90;;;;;;4938820;29;20255;-76
2022/12/27 13:07:44;;;;;;;0.60;0.60;;;1.40;99.90;;;;;;4955780;29;20295;-75
2022/12/27 13:11:07;;;;;;;0.60;0.60;;;1.40;99.90;;;;;;4953434;29;20224;-75
2022/12/27 13:13:43;;;;;;;0.52;0.52;;;1.50;99.90;;;;;;5010556;28;20296;-74
2022/12/27 13:16:15;;;;;;;0.60;0.60;;;1.50;99.90;;;;;;4992926;28;20211;-74
2022/12/27 13:18:53;;;;;;;0.60;0.60;;;1.40;99.90;;;;;;5006917;28;20292;-75
2022/12/27 13:21:37;;;;;;;0.60;0.60;;;1.30;99.90;;;;;;5056082;28;20221;-75
2022/12/27 13:24:17;;;;;;;0.50;0.50;;;1.20;99.90;;;;;;5056364;28;20593;-74
2022/12/27 13:27:12;;;;;;;0.60;0.60;;;1.30;99.90;;;;;;5068124;28;20192;-75
2022/12/27 13:30:14;;;;;;;0.70;0.70;;;1.20;99.90;;;;;;5013803;28;20207;-75
2022/12/27 13:40:15;;;;;;;0.77;0.77;;;1.20;99.90;;;;;;5002751;28;20294;-74
2022/12/27 13:43:18;;;;;;;0.70;0.70;;;1.20;99.90;;;;;;5008106;28;20669;-74
2022/12/27 13:46:12;;;;;;;0.70;0.70;;;1.20;99.90;;;;;;5031200;28;20195;-74
2022/12/27 13:48:50;;;;;;;0.80;0.80;;;1.10;99.90;;;;;;5031192;28;20202;-75
2022/12/27 13:51:40;;;;;;;0.68;0.68;;;1.00;99.90;;;;;;5028348;28;20365;-74
2022/12/27 13:54:37;;;;;;;0.70;0.70;;;1.00;99.90;;;;;;5012151;28;20272;-74
2022/12/27 13:57:30;;;;;;;0.70;0.70;;;1.00;99.90;;;;;;5029145;28;20195;-75
2022/12/27 14:00:21;;;;;;;1.05;0.98;;;0.80;99.90;;;;;;5012321;28;20229;-75
2022/12/27 14:03:15;;;;;;;0.70;0.70;;;0.70;99.90;;;;;;5030252;28;20191;-74
2022/12/27 14:06:19;;;;;;;0.50;0.50;;;0.50;99.90;;;;;;4997812;28;20709;-76
2022/12/27 14:09:29;;;;;;;0.60;0.60;;;0.50;99.90;;;;;;5053468;28;20658;-75
2022/12/27 14:12:45;;;;;;;0.60;0.60;;;0.30;99.90;;;;;;5095313;28;20246;-73
2022/12/27 14:19:31;;;;;;;0.65;0.65;;;0.30;99.90;;;;;;5001025;28;20290;-75
2022/12/27 14:22:11;;;;;;;0.60;0.60;;;0.40;99.90;;;;;;5010085;28;20211;-75
2022/12/27 14:24:50;;;;;;;0.60;0.60;;;0.20;99.90;;;;;;5013653;28;20238;-74
2022/12/27 14:27:53;;;;;;;0.57;0.57;;;0.10;99.90;;;;;;5013283;28;20290;-75
2022/12/27 14:30:52;;;;;;;0.50;0.50;;;0.20;99.90;;;;;;5029539;28;20325;-75
2022/12/27 14:37:15;;;;;;;0.57;0.57;;;0.20;99.90;;;;;;5013408;28;20304;-73
2022/12/27 14:40:05;;;;;;;0.70;0.70;;;0.40;99.90;;;;;;4971710;28;20605;-73
2022/12/27 14:42:42;;;;;;;0.60;0.60;;;0.50;99.90;;;;;;4971340;28;20248;-74
2022/12/27 14:45:57;;;;;;;0.50;0.50;;;0.70;99.90;;;;;;4990914;28;20200;-74
2022/12/27 14:48:53;;;;;;;0.60;0.60;;;0.70;99.90;;;;;;5026340;28;20203;-73
2022/12/27 14:51:30;;;;;;;0.65;0.65;;;0.70;99.90;;;;;;5009848;28;20550;-75
2022/12/27 14:54:08;;;;;;;0.60;0.60;;;0.70;99.90;;;;;;5057071;28;20239;-73
2022/12/27 14:56:49;;;;;;;0.70;0.70;;;0.70;99.90;;;;;;5070944;28;20752;-74
2022/12/27 15:00:23;;;;;;;0.70;0.70;;;0.70;99.90;;;;;;5073434;28;20667;-75
2022/12/27 15:02:58;;;;;;;0.50;0.50;;;0.60;99.90;;;;;;4984428;28;20239;-74
2022/12/27 15:05:37;;;;;;;0.52;0.52;;;0.60;99.90;;;;;;4974360;28;20249;-73
2022/12/27 15:08:25;;;;;;;0.60;0.60;;;0.60;99.90;;;;;;4975587;28;20231;-74
2022/12/27 15:11:29;;;;;;;0.70;0.70;;;0.60;99.90;;;;;;4973173;28;20662;-75
2022/12/27 15:14:00;;;;;;;0.70;0.70;;;0.60;99.90;;;;;;4990152;28;20290;-74
2022/12/27 15:17:03;;;;;;;0.60;0.60;;;0.60;99.90;;;;;;4968318;28;20216;-75
2022/12/27 15:19:46;;;;;;;0.68;0.68;;;0.60;99.90;;;;;;4970142;28;20698;-73
2022/12/27 15:22:43;;;;;;;0.70;0.70;;;0.50;99.90;;;;;;4970162;28;20271;-73
2022/12/27 15:25:27;;;;;;;0.60;0.60;;;0.60;99.90;;;;;;4970482;28;20320;-74
2022/12/27 15:28:04;;;;;;;0.88;0.82;;;0.50;99.90;;;;;;4954238;28;20568;-74
2022/12/27 15:30:48;;;;;;;0.60;0.60;;;0.50;99.90;;;;;;4970248;28;20204;-74
2022/12/27 15:33:53;;;;;;;0.60;0.60;;;0.40;99.90;;;;;;4970473;28;20243;-74
2022/12/27 15:36:20;;;;;;;0.57;0.57;;;0.40;99.90;;;;;;4966006;28;20263;-74
2022/12/27 15:38:52;;;;;;;0.57;0.57;;;0.30;99.90;;;;;;5017583;28;20220;-74
2022/12/27 15:41:58;;;;;;;0.63;0.63;;;0.20;99.90;;;;;;5053053;28;20200;-74
2022/12/27 15:45:04;;;;;;;0.60;0.60;;;0.10;99.90;;;;;;5052366;28;20676;-73
2022/12/27 15:48:05;;;;;;;0.60;0.60;;;0.00;99.90;;;;;;5051931;28;20634;-74
2022/12/27 15:51:00;;;;;;;0.65;0.65;;;0.00;99.90;;;;;;5052022;28;20193;-74
2022/12/27 15:53:47;;;;;;;0.80;0.80;;;0.00;99.90;;;;;;5077191;28;20228;-75
2022/12/27 15:56:41;;;;;;;0.75;0.75;;;-0.10;99.90;;;;;;5053740;28;20281;-74
2022/12/27 15:59:57;;;;;;;0.60;0.60;;;-0.20;99.90;;;;;;5071154;28;20559;-74
2022/12/27 16:02:57;;;;;;;0.60;0.60;;;-0.20;99.90;;;;;;5053658;28;20207;-75
2022/12/27 16:05:59;;;;;;;0.63;0.63;;;-0.10;99.90;;;;;;5055491;28;20232;-74
2022/12/27 16:08:37;;;;;;;0.60;0.60;;;0.10;99.90;;;;;;5009383;28;20700;-74
2022/12/27 16:11:13;;;;;;;0.57;0.57;;;0.20;99.90;;;;;;5008957;28;20207;-74
2022/12/27 16:13:39;;;;;;;0.70;0.70;;;0.30;99.90;;;;;;5008841;28;20198;-74
2022/12/27 16:16:08;;;;;;;0.70;0.70;;;0.40;99.90;;;;;;5008868;28;20763;-75
2022/12/27 16:18:56;;;;;;;0.60;0.60;;;0.30;99.90;;;;;;5047056;28;20249;-74
2022/12/27 16:21:24;;;;;;;0.60;0.60;;;0.20;99.90;;;;;;5072633;28;20196;-76
2022/12/27 16:24:02;;;;;;;0.60;0.60;;;0.20;99.90;;;;;;5091077;28;20192;-74
2022/12/27 16:26:31;;;;;;;0.60;0.60;;;0.10;99.90;;;;;;5090942;28;20195;-74
2022/12/27 16:29:11;;;;;;;0.70;0.70;;;-0.10;99.90;;;;;;5072872;28;20710;-75
2022/12/27 16:31:40;;;;;;;0.80;0.80;;;-0.30;99.90;;;;;;5071232;28;20682;-74
2022/12/27 16:34:22;;;;;;;0.60;0.60;;;-0.50;99.90;;;;;;5072846;28;20211;-74
2022/12/27 16:36:50;;;;;;;0.70;0.70;;;-0.60;99.90;;;;;;5074659;28;20197;-74
2022/12/27 16:39:53;;;;;;;0.70;0.70;;;-0.70;99.90;;;;;;5090132;28;20654;-74
2022/12/27 16:42:28;;;;;;;0.63;0.63;;;-0.60;99.90;;;;;;5095015;28;20207;-75
2022/12/27 16:45:04;;;;;;;0.70;0.70;;;-0.60;99.90;;;;;;5094745;28;20245;-75
2022/12/27 16:48:32;;;;;;;0.70;0.70;;;-0.50;99.90;;;;;;5094432;28;20531;-74
2022/12/27 16:51:13;;;;;;;0.70;0.70;;;-0.80;99.90;;;;;;5012277;28;20230;-75
2022/12/27 16:54:03;;;;;;;0.70;0.70;;;-0.90;99.90;;;;;;5056711;28;20627;-74
2022/12/27 16:56:33;;;;;;;0.70;0.70;;;-1.00;99.90;;;;;;5072879;28;20219;-75
2022/12/27 16:58:59;;;;;;;0.63;0.63;;;-1.10;99.90;;;;;;5074815;28;20193;-75
2022/12/27 17:01:25;;;;;;;0.68;0.68;;;-1.30;99.90;;;;;;5074092;28;20185;-75